createdAt,value
2018-06-16T00:02:04.610Z,95.50
2018-06-16T00:04:32.362Z,95.20
2018-06-16T00:07:01.760Z,95.40
2018-06-16T00:09:29.741Z,94.80
2018-06-16T00:11:57.676Z,94.90
2018-06-16T00:14:25.662Z,94.20
2018-06-16T00:16:53.630Z,93.90
2018-06-16T00:19:21.618Z,94.40
2018-06-16T00:21:49.476Z,94.10
2018-06-16T00:24:17.452Z,94.60
2018-06-16T00:26:45.348Z,94.60
2018-06-16T00:29:13.291Z,94.30
2018-06-16T00:31:41.218Z,93.90
2018-06-16T00:34:09.193Z,93.90
2018-06-16T00:36:44.107Z,93.70
2018-06-16T00:39:11.913Z,93.50
2018-06-16T00:41:39.998Z,93.00
2018-06-16T00:44:08.002Z,93.40
2018-06-16T00:46:35.865Z,92.90
2018-06-16T00:49:03.709Z,92.50
2018-06-16T00:51:31.523Z,92.00
2018-06-16T00:53:59.291Z,91.70
2018-06-16T00:56:27.048Z,91.50
2018-06-16T00:58:54.788Z,91.40
2018-06-16T01:01:22.584Z,91.50
2018-06-16T01:03:50.446Z,91.40
2018-06-16T01:06:19.212Z,91.40
2018-06-16T01:08:46.952Z,91.30
2018-06-16T01:11:14.872Z,91.00
2018-06-16T01:13:42.686Z,90.80
2018-06-16T01:16:10.555Z,91.10
2018-06-16T01:18:38.332Z,91.10
2018-06-16T01:21:06.411Z,91.60
2018-06-16T01:23:34.213Z,91.50
2018-06-16T01:26:01.981Z,91.60
2018-06-16T01:28:29.728Z,91.60
2018-06-16T01:30:57.488Z,91.90
2018-06-16T01:33:25.265Z,91.70
2018-06-16T01:35:53.057Z,91.80
2018-06-16T01:38:20.861Z,91.80
2018-06-16T01:40:48.618Z,92.10
2018-06-16T01:43:16.390Z,92.10
2018-06-16T01:50:41.041Z,92.50
2018-06-16T01:53:08.890Z,92.40
2018-06-16T01:55:36.751Z,93.10
2018-06-16T01:58:04.583Z,92.90
2018-06-16T02:00:32.460Z,92.70
2018-06-16T02:03:00.342Z,93.00
2018-06-16T02:05:28.187Z,92.90
2018-06-16T02:07:56.023Z,92.90
2018-06-16T02:10:23.839Z,93.00
2018-06-16T02:12:51.759Z,92.90
2018-06-16T02:17:52.670Z,92.90
2018-06-16T02:20:20.541Z,92.60
2018-06-16T02:22:48.395Z,92.80
2018-06-16T02:25:17.179Z,92.50
2018-06-16T02:27:44.994Z,92.10
2018-06-16T02:30:12.827Z,91.60
2018-06-16T02:32:40.617Z,91.30
2018-06-16T02:35:08.591Z,91.20
2018-06-16T02:37:36.473Z,91.10
2018-06-16T02:40:04.344Z,90.80
2018-06-16T02:42:32.227Z,90.70
2018-06-16T02:45:00.125Z,90.40
2018-06-16T02:47:27.995Z,90.10
2018-06-16T02:49:55.820Z,89.10
2018-06-16T02:52:23.714Z,88.60
2018-06-16T02:54:51.772Z,88.70
2018-06-16T02:57:19.619Z,87.80
2018-06-16T02:59:47.490Z,88.20
2018-06-16T03:02:15.384Z,87.90
2018-06-16T03:04:43.248Z,87.80
2018-06-16T03:07:11.078Z,87.90
2018-06-16T03:09:39.014Z,88.10
2018-06-16T03:12:06.949Z,88.00
2018-06-16T03:14:34.793Z,87.70
2018-06-16T03:17:30.573Z,88.10
2018-06-16T03:19:58.468Z,88.70
2018-06-16T03:22:26.337Z,89.30
2018-06-16T03:24:55.329Z,89.70
2018-06-16T03:27:23.164Z,90.20
2018-06-16T03:29:52.022Z,90.30
2018-06-16T03:32:19.793Z,90.20
2018-06-16T03:34:48.673Z,90.10
2018-06-16T03:37:16.422Z,90.30
2018-06-16T03:39:45.324Z,90.60
2018-06-16T03:42:13.112Z,90.90
2018-06-16T03:44:41.977Z,91.10
2018-06-16T03:47:09.783Z,91.00
2018-06-16T03:49:37.604Z,91.20
2018-06-16T03:52:05.460Z,91.10
2018-06-16T03:54:34.366Z,91.20
2018-06-16T03:57:02.138Z,91.50
2018-06-16T03:59:29.987Z,91.50
2018-06-16T04:01:57.710Z,91.70
2018-06-16T04:04:25.568Z,91.70
2018-06-16T04:06:53.393Z,91.70
2018-06-16T04:09:21.972Z,91.30
2018-06-16T04:11:49.784Z,91.60
2018-06-16T04:14:17.611Z,91.70
2018-06-16T04:16:45.382Z,91.80
2018-06-16T04:19:13.204Z,91.90
2018-06-16T04:21:42.774Z,91.90
2018-06-16T04:24:10.570Z,91.70
2018-06-16T04:26:38.547Z,91.70
2018-06-16T04:29:06.437Z,91.60
2018-06-16T04:31:34.354Z,91.90
2018-06-16T04:34:02.184Z,91.80
2018-06-16T04:36:31.968Z,92.10
2018-06-16T04:38:59.768Z,92.00
2018-06-16T04:41:27.642Z,92.10
2018-06-16T04:46:21.555Z,91.80
2018-06-16T05:22:20.216Z,91.80
2018-06-16T05:25:01.322Z,92.10
2018-06-16T05:27:29.102Z,92.10
2018-06-16T05:30:24.726Z,91.90
2018-06-16T05:32:52.467Z,91.70
2018-06-16T05:35:20.247Z,91.70
2018-06-16T05:41:22.945Z,91.60
2018-06-16T05:43:50.711Z,91.50
2018-06-16T05:46:44.579Z,91.30
2018-06-16T05:49:12.417Z,91.30
2018-06-16T05:51:43.350Z,91.40
2018-06-16T05:54:11.151Z,91.20
2018-06-16T05:56:40.033Z,91.10
2018-06-16T06:18:43.395Z,90.00
2018-06-16T06:21:32.425Z,90.00
2018-06-16T06:24:00.387Z,90.10
2018-06-16T06:26:28.154Z,90.50
2018-06-16T06:29:10.837Z,90.60
2018-06-16T06:31:38.595Z,90.30
2018-06-16T06:34:06.445Z,90.00
2018-06-16T06:36:34.261Z,90.30
2018-06-16T06:39:03.856Z,90.00
2018-06-16T06:41:31.665Z,90.00
2018-06-16T06:44:09.535Z,89.90
2018-06-16T06:47:01.259Z,90.00
2018-06-16T06:49:29.060Z,90.10
2018-06-16T06:55:31.279Z,89.60
2018-06-16T06:57:59.141Z,87.70
2018-06-16T07:00:39.852Z,88.40
2018-06-16T07:03:07.666Z,87.90
2018-06-16T07:05:35.719Z,87.40
2018-06-16T07:08:03.705Z,87.40
2018-06-16T07:10:31.492Z,87.60
2018-06-16T07:12:59.328Z,88.50
2018-06-16T07:15:27.116Z,88.50
2018-06-16T07:17:54.992Z,87.60
2018-06-16T07:20:22.855Z,87.20
2018-06-16T07:22:50.767Z,87.50
2018-06-16T07:25:19.846Z,87.60
2018-06-16T07:27:47.998Z,89.50
2018-06-16T07:30:15.801Z,89.10
2018-06-16T07:32:44.637Z,88.30
2018-06-16T07:35:12.489Z,88.40
2018-06-16T07:37:40.354Z,89.20
2018-06-16T07:40:08.122Z,88.50
2018-06-16T07:42:35.944Z,88.50
2018-06-16T07:45:04.148Z,88.30
2018-06-16T07:47:31.915Z,88.40
2018-06-16T07:50:05.042Z,88.60
2018-06-16T07:52:32.780Z,89.00
2018-06-16T07:55:01.934Z,88.70
2018-06-16T08:29:56.718Z,85.90
2018-06-16T08:32:33.227Z,84.30
2018-06-16T08:35:01.236Z,85.10
2018-06-16T08:40:05.777Z,84.30
2018-06-16T08:42:33.735Z,85.60
2018-06-16T08:45:06.372Z,85.90
2018-06-16T08:47:34.212Z,85.40
2018-06-16T08:50:02.037Z,84.70
2018-06-16T08:52:29.886Z,84.50
2018-06-16T08:54:57.817Z,81.50
2018-06-16T08:57:25.656Z,81.60
2018-06-16T08:59:53.516Z,81.20
2018-06-16T09:02:21.262Z,82.50
2018-06-16T09:04:49.129Z,81.80
2018-06-16T09:07:16.956Z,82.30
2018-06-16T09:09:44.871Z,81.90
2018-06-16T09:12:12.724Z,81.50
2018-06-16T09:14:40.539Z,79.80
2018-06-16T09:17:08.367Z,81.20
2018-06-16T09:19:36.214Z,77.90
2018-06-16T09:22:04.008Z,75.60
2018-06-16T09:24:31.874Z,75.90
2018-06-16T09:26:59.710Z,77.10
2018-06-16T09:29:27.658Z,74.30
2018-06-16T09:31:55.675Z,74.50
2018-06-16T09:36:56.906Z,75.30
2018-06-16T09:39:24.740Z,75.70
2018-06-16T09:41:52.694Z,72.40
2018-06-16T09:44:20.607Z,75.00
2018-06-16T09:46:48.562Z,77.10
2018-06-16T09:49:16.376Z,79.00
2018-06-16T09:51:44.232Z,78.40
2018-06-16T09:54:12.065Z,75.10
2018-06-16T09:56:51.336Z,73.80
2018-06-16T09:59:19.357Z,74.00
2018-06-16T10:01:47.240Z,72.80
2018-06-16T10:04:15.295Z,72.30
2018-06-16T10:06:43.299Z,69.90
2018-06-16T10:09:11.319Z,69.40
2018-06-16T10:11:40.256Z,70.20
2018-06-16T10:14:08.192Z,71.00
2018-06-16T10:16:36.073Z,72.40
2018-06-16T10:19:04.004Z,66.60
2018-06-16T10:21:31.840Z,66.60
2018-06-16T10:23:59.706Z,66.10
2018-06-16T10:26:27.542Z,67.40
2018-06-16T10:28:55.338Z,67.40
2018-06-16T10:31:23.211Z,66.70
2018-06-16T10:33:51.043Z,67.00
2018-06-16T10:36:18.916Z,68.60
2018-06-16T10:38:46.793Z,67.40
2018-06-16T10:44:29.234Z,68.30
2018-06-16T10:46:57.174Z,64.80
2018-06-16T10:49:25.015Z,60.90
2018-06-16T10:51:52.902Z,59.60
2018-06-16T10:54:20.859Z,61.00
2018-06-16T10:56:48.939Z,62.30
2018-06-16T10:59:16.820Z,59.40
2018-06-16T11:01:44.705Z,60.80
2018-06-16T11:04:12.647Z,59.90
2018-06-16T11:06:40.629Z,58.30
2018-06-16T11:09:10.496Z,58.50
2018-06-16T11:11:38.795Z,55.60
2018-06-16T11:14:09.786Z,56.30
2018-06-16T11:20:47.357Z,57.10
2018-06-16T11:23:15.321Z,55.60
2018-06-16T11:25:43.204Z,56.60
2018-06-16T11:28:11.097Z,54.90
2018-06-16T11:30:38.930Z,54.80
2018-06-16T11:33:06.868Z,57.70
2018-06-16T11:35:34.680Z,58.20
2018-06-16T11:38:02.582Z,56.90
2018-06-16T11:40:30.389Z,58.00
2018-06-16T11:42:58.591Z,59.60
2018-06-16T11:45:26.425Z,60.90
2018-06-16T11:47:54.372Z,59.80
2018-06-16T11:50:22.326Z,57.30
2018-06-16T11:52:50.154Z,56.60
2018-06-16T11:55:19.009Z,56.40
2018-06-16T11:57:47.012Z,56.60
2018-06-16T12:00:14.952Z,54.60
2018-06-16T12:02:42.835Z,56.80
2018-06-16T12:05:25.657Z,57.80
2018-06-16T12:07:53.767Z,58.50
2018-06-16T12:10:21.778Z,57.80
2018-06-16T12:15:15.031Z,58.00
2018-06-16T12:17:42.884Z,60.50
2018-06-16T12:20:10.671Z,58.60
2018-06-16T12:22:38.463Z,58.90
2018-06-16T12:25:06.305Z,58.60
2018-06-16T12:27:34.071Z,57.40
2018-06-16T12:30:01.883Z,56.00
2018-06-16T12:32:29.755Z,56.70
2018-06-16T12:34:57.561Z,56.70
2018-06-16T12:37:25.382Z,63.50
2018-06-16T12:39:53.579Z,67.80
2018-06-16T12:42:21.402Z,70.30
2018-06-16T12:44:49.269Z,70.50
2018-06-16T12:47:17.092Z,68.70
2018-06-16T12:49:44.918Z,69.40
2018-06-16T12:52:12.730Z,67.90
2018-06-16T12:54:40.836Z,67.70
2018-06-16T12:57:08.831Z,66.70
2018-06-16T12:59:36.677Z,65.60
2018-06-16T13:02:04.555Z,65.20
2018-06-16T13:04:32.339Z,63.90
2018-06-16T13:07:00.117Z,62.00
2018-06-16T13:09:27.954Z,61.20
2018-06-16T13:11:55.715Z,60.60
2018-06-16T13:14:23.477Z,60.70
2018-06-16T13:16:52.258Z,62.70
2018-06-16T13:19:20.079Z,62.90
2018-06-16T13:21:47.865Z,62.80
2018-06-16T13:24:15.655Z,60.50
2018-06-16T13:26:51.534Z,60.40
2018-06-16T13:31:59.395Z,61.60
2018-06-16T13:34:27.176Z,64.10
2018-06-16T13:36:54.961Z,65.20
2018-06-16T13:39:23.852Z,65.60
2018-06-16T13:41:51.677Z,62.80
2018-06-16T13:44:19.497Z,58.90
2018-06-16T13:46:47.374Z,55.10
2018-06-16T13:49:15.207Z,52.30
2018-06-16T13:51:43.039Z,51.20
2018-06-16T13:54:10.786Z,51.80
2018-06-16T13:56:38.938Z,53.00
2018-06-16T13:59:07.202Z,53.70
2018-06-16T14:01:35.080Z,53.70
2018-06-16T14:04:03.520Z,55.50
2018-06-16T14:06:31.512Z,56.90
2018-06-16T14:08:59.267Z,59.80
2018-06-16T14:25:04.409Z,59.80
2018-06-16T14:27:32.213Z,61.30
2018-06-16T14:29:59.957Z,61.50
2018-06-16T14:32:53.944Z,61.60
2018-06-16T14:35:21.783Z,59.90
2018-06-16T14:37:49.577Z,60.10
2018-06-16T14:40:17.434Z,60.90
2018-06-16T14:42:45.200Z,59.60
2018-06-16T14:45:13.013Z,59.90
2018-06-16T14:47:40.807Z,60.60
2018-06-16T14:50:08.574Z,59.70
2018-06-16T14:52:36.407Z,57.80
2018-06-16T14:55:04.248Z,57.10
2018-06-16T14:57:32.056Z,57.90
2018-06-16T14:59:59.800Z,58.60
2018-06-16T15:02:27.601Z,59.60
2018-06-16T15:04:55.490Z,59.70
2018-06-16T15:07:23.176Z,58.80
2018-06-16T15:09:51.996Z,58.40
2018-06-16T15:12:20.147Z,59.10
2018-06-16T15:14:48.188Z,58.70
2018-06-16T15:17:16.386Z,58.40
2018-06-16T15:19:44.488Z,57.00
2018-06-16T15:22:12.556Z,54.50
2018-06-16T15:24:40.470Z,51.00
2018-06-16T15:27:09.379Z,50.10
2018-06-16T15:29:46.057Z,47.90
2018-06-16T15:32:13.952Z,50.60
2018-06-16T15:34:41.818Z,53.60
2018-06-16T15:37:09.658Z,55.30
2018-06-16T15:39:37.403Z,55.90
2018-06-16T15:42:06.436Z,55.70
2018-06-16T15:44:34.226Z,55.50
2018-06-16T15:47:01.993Z,54.10
2018-06-16T15:49:29.784Z,53.20
2018-06-16T15:51:57.577Z,54.90
2018-06-16T15:54:25.343Z,51.80
2018-06-16T15:56:53.125Z,50.10
2018-06-16T15:59:20.944Z,48.50
2018-06-16T16:01:48.768Z,48.70
2018-06-16T16:04:16.552Z,50.70
2018-06-16T16:06:44.322Z,53.10
2018-06-16T16:09:14.197Z,53.90
2018-06-16T16:11:41.990Z,54.60
2018-06-16T16:14:10.946Z,53.90
2018-06-16T16:16:38.774Z,53.90
2018-06-16T16:21:32.232Z,49.40
2018-06-16T16:24:00.138Z,49.60
2018-06-16T16:26:28.025Z,47.40
2018-06-16T16:28:56.685Z,47.50
2018-06-16T16:31:24.553Z,49.40
2018-06-16T16:33:52.463Z,48.10
2018-06-16T16:36:20.541Z,50.30
2018-06-16T16:38:48.445Z,49.20
2018-06-16T16:41:16.358Z,50.10
2018-06-16T16:43:44.248Z,49.20
2018-06-16T16:46:12.206Z,50.20
2018-06-16T16:48:40.117Z,48.40
2018-06-16T16:51:08.560Z,48.50
2018-06-16T16:53:36.389Z,50.30
2018-06-16T16:58:35.777Z,48.60
2018-06-16T17:01:11.895Z,50.10
2018-06-16T17:03:39.735Z,50.90
2018-06-16T17:06:07.661Z,51.10
2018-06-16T17:08:35.539Z,52.30
2018-06-16T17:11:03.500Z,53.60
2018-06-16T17:13:31.662Z,56.20
2018-06-16T17:15:59.553Z,56.00
2018-06-16T17:18:27.629Z,55.80
2018-06-16T17:20:55.723Z,55.00
2018-06-16T17:23:23.754Z,55.50
2018-06-16T17:25:51.671Z,56.80
2018-06-16T17:28:19.614Z,57.70
2018-06-16T17:30:47.454Z,56.40
2018-06-16T17:33:15.298Z,56.70
2018-06-16T17:35:43.218Z,57.60
2018-06-16T17:38:11.062Z,58.20
2018-06-16T17:40:38.983Z,58.70
2018-06-16T17:43:07.036Z,59.20
2018-06-16T17:45:34.900Z,58.30
2018-06-16T17:48:02.835Z,59.90
2018-06-16T17:50:30.752Z,59.80
2018-06-16T17:52:58.655Z,60.20
2018-06-16T17:55:26.598Z,59.90
2018-06-16T17:57:54.520Z,60.40
2018-06-16T18:00:22.411Z,59.80
2018-06-16T18:02:50.424Z,59.50
2018-06-16T18:05:18.325Z,60.30
2018-06-16T18:07:46.260Z,61.30
2018-06-16T18:10:14.340Z,59.70
2018-06-16T18:12:42.195Z,61.40
2018-06-16T18:15:10.064Z,60.80
2018-06-16T18:17:38.039Z,61.30
2018-06-16T18:20:06.023Z,61.20
2018-06-16T18:22:33.858Z,62.10
2018-06-16T18:25:01.731Z,62.10
2018-06-16T18:27:29.632Z,61.40
2018-06-16T18:29:57.584Z,61.70
2018-06-16T18:32:25.551Z,61.80
2018-06-16T18:34:53.553Z,61.80
2018-06-16T18:39:46.858Z,61.70
2018-06-16T18:42:14.803Z,62.50
2018-06-16T18:44:42.732Z,63.30
2018-06-16T18:47:10.784Z,62.90
2018-06-16T18:49:38.562Z,63.20
2018-06-16T18:52:06.409Z,63.70
2018-06-16T18:54:34.179Z,62.90
2018-06-16T18:57:03.024Z,62.90
2018-06-16T18:59:30.844Z,63.20
2018-06-16T19:01:59.928Z,62.60
2018-06-16T19:04:27.801Z,63.40
2018-06-16T19:06:55.658Z,64.10
2018-06-16T19:09:23.429Z,63.00
2018-06-16T19:11:52.290Z,63.70
2018-06-16T19:14:20.090Z,64.50
2018-06-16T19:16:47.946Z,65.40
2018-06-16T19:19:15.758Z,64.90
2018-06-16T19:21:43.662Z,65.90
2018-06-16T19:24:11.504Z,66.20
2018-06-16T19:26:39.495Z,66.20
2018-06-16T19:29:07.239Z,67.10
2018-06-16T19:31:35.190Z,67.10
2018-06-16T19:34:03.024Z,67.50
2018-06-16T19:36:30.934Z,68.40
2018-06-16T19:38:58.722Z,68.80
2018-06-16T19:41:26.492Z,69.70
2018-06-16T19:43:55.100Z,70.20
2018-06-16T19:46:23.088Z,71.20
2018-06-16T19:48:50.949Z,71.70
2018-06-16T19:53:47.534Z,73.70
2018-06-16T19:56:15.330Z,74.00
2018-06-16T19:58:43.119Z,74.90
2018-06-16T20:01:10.951Z,75.10
2018-06-16T20:03:38.913Z,75.00
2018-06-16T20:06:06.724Z,75.80
2018-06-16T20:08:34.638Z,76.70
2018-06-16T20:11:02.457Z,76.80
2018-06-16T20:13:30.233Z,77.40
2018-06-16T20:16:00.106Z,77.70
2018-06-16T20:18:27.867Z,77.50
2018-06-16T20:20:55.813Z,77.50
2018-06-16T20:23:23.584Z,77.00
2018-06-16T20:25:51.315Z,77.10
2018-06-16T20:28:19.068Z,76.70
2018-06-16T20:30:46.853Z,76.30
2018-06-16T20:33:15.672Z,76.30
2018-06-16T20:35:43.476Z,76.30
2018-06-16T20:38:11.308Z,76.30
2018-06-16T20:40:39.071Z,76.80
2018-06-16T20:43:06.849Z,76.50
2018-06-16T20:45:34.633Z,76.70
2018-06-16T20:48:02.389Z,76.60
2018-06-16T20:50:30.223Z,76.90
2018-06-16T20:52:57.925Z,77.40
2018-06-16T21:01:44.191Z,79.40
2018-06-16T21:04:12.976Z,79.10
2018-06-16T21:06:40.841Z,79.50
2018-06-16T21:09:10.985Z,78.70
2018-06-16T21:11:38.832Z,78.60
2018-06-16T21:14:06.769Z,78.70
2018-06-16T21:16:34.748Z,79.30
2018-06-16T21:19:02.655Z,79.10
2018-06-16T21:21:30.593Z,78.70
2018-06-16T21:23:58.482Z,78.70
2018-06-16T21:26:26.335Z,78.80
2018-06-16T21:28:55.227Z,78.70
2018-06-16T21:31:23.141Z,78.80
2018-06-16T21:33:51.005Z,79.40
2018-06-16T21:36:19.938Z,80.10
2018-06-16T21:38:47.884Z,80.50
2018-06-16T21:41:15.803Z,81.60
2018-06-16T21:43:43.663Z,82.30
2018-06-16T21:46:11.602Z,82.10
2018-06-16T21:48:39.453Z,82.40
2018-06-16T21:51:20.544Z,83.10
2018-06-16T21:53:48.811Z,83.30
2018-06-16T21:56:16.687Z,83.60
2018-06-16T21:58:44.552Z,85.10
2018-06-16T22:01:12.326Z,85.30
2018-06-16T22:03:41.181Z,85.60
2018-06-16T22:06:09.004Z,84.40
2018-06-16T22:08:37.007Z,84.30
2018-06-16T22:11:04.790Z,84.00
2018-06-16T22:13:32.652Z,84.40
2018-06-16T22:16:00.449Z,84.90
2018-06-16T22:18:28.233Z,85.10
2018-06-16T22:20:56.258Z,84.90
2018-06-16T22:23:24.135Z,84.80
2018-06-16T22:25:51.947Z,84.80
2018-06-16T22:28:19.762Z,85.00
2018-06-16T22:30:47.622Z,85.30
2018-06-16T22:33:15.454Z,85.50
2018-06-16T22:35:46.499Z,85.60
2018-06-16T22:38:14.295Z,85.80
2018-06-16T22:40:42.149Z,85.80
2018-06-16T22:43:10.004Z,86.30
2018-06-16T22:45:37.789Z,86.30
2018-06-16T22:48:05.646Z,86.60
2018-06-16T22:50:37.543Z,86.70
2018-06-16T22:53:06.365Z,87.90
2018-06-16T22:55:34.162Z,87.70
2018-06-16T22:58:37.286Z,88.10
2018-06-16T23:01:05.298Z,88.10
2018-06-16T23:03:33.388Z,88.60
2018-06-16T23:06:01.436Z,89.00
2018-06-16T23:08:29.423Z,89.10
2018-06-16T23:10:57.382Z,88.90
2018-06-16T23:13:25.391Z,89.20
2018-06-16T23:16:01.377Z,89.00
2018-06-16T23:18:29.225Z,88.60
2018-06-16T23:20:57.024Z,89.40
2018-06-16T23:23:24.826Z,90.20
2018-06-16T23:25:52.641Z,89.90
2018-06-16T23:28:20.473Z,89.40
2018-06-16T23:30:48.226Z,90.50
2018-06-16T23:33:15.986Z,90.70
2018-06-16T23:35:43.836Z,91.10
2018-06-16T23:38:11.665Z,91.60
2018-06-16T23:40:39.439Z,91.80
2018-06-16T23:43:07.235Z,91.90
2018-06-16T23:45:35.018Z,91.90
2018-06-16T23:48:02.842Z,91.80
2018-06-16T23:50:30.692Z,91.90
2018-06-16T23:55:28.343Z,92.40
2018-06-16T23:58:03.774Z,92.60
